Terminal Aerodrome Forecast
Issued by NWS

Home | Current Version | Previous Version | Text Only | Print | Product List | Glossary On
Versions: 1 2 3 4 5 6 7 8 9 10 11 12 13 14 15 16 17 18
000
FTUS45 KTFX 291904 AAB
TAFHLN
TAF AMD
KHLN 291904Z 2919/3018 VRB05KT 2SM FU BKN028
     FM292100 19015G25KT P6SM VCTS SCT100CB OVC150
      TEMPO 2921/3001 VRB22G32KT
     FM300300 29008KT 4SM FU VCSH SCT080 BKN120
     FM301600 29008KT 6SM FU SCT080 SCT120=

USA.gov is the U.S. government's official web portal to all federal, state and local government web resources and services.